Time;durP1;ratioP1;P1;durP2;ratioP2;P2;SDS_P1;SDS_P2;PMS_P1;PMS_P2;Temp;Humidity;BMP_temperature;BMP_pressure;BME280_temperature;BME280_humidity;BME280_pressure;Samples;Min_cycle;Max_cycle;Signal;HPM_P1;HPM_P2
2023/06/17 00:00:15;;;;;;;7.70;7.10;;;17.50;92.20;;;;;;5051940;28;20259;-90
2023/06/17 00:02:41;;;;;;;7.90;7.13;;;17.40;92.50;;;;;;5050437;28;20205;-90
2023/06/17 00:05:07;;;;;;;7.60;6.87;;;17.10;92.60;;;;;;5051348;28;20188;-90
2023/06/17 00:07:32;;;;;;;8.67;7.80;;;17.30;92.60;;;;;;5053152;28;20189;-90
2023/06/17 00:09:58;;;;;;;7.20;6.50;;;17.40;92.80;;;;;;5049282;28;21004;-90
2023/06/17 00:12:29;;;;;;;6.90;6.30;;;17.30;93.00;;;;;;5055962;28;20209;-90
2023/06/17 00:14:57;;;;;;;7.78;6.50;;;17.40;93.00;;;;;;5054011;28;20220;-90
2023/06/17 00:17:23;;;;;;;6.97;6.40;;;17.10;93.00;;;;;;5050827;28;20643;-90
2023/06/17 00:19:49;;;;;;;7.57;6.88;;;17.00;93.30;;;;;;5049392;28;20182;-90
2023/06/17 00:22:14;;;;;;;9.50;7.10;;;17.00;93.20;;;;;;5052905;28;20203;-90
2023/06/17 00:24:40;;;;;;;7.27;6.60;;;16.80;93.20;;;;;;5053093;28;20198;-90
2023/06/17 00:27:05;;;;;;;6.40;5.80;;;17.20;93.30;;;;;;5053219;28;20200;-90
2023/06/17 00:29:31;;;;;;;7.80;7.10;;;17.00;93.10;;;;;;5052585;28;20198;-89
2023/06/17 00:31:57;;;;;;;7.23;6.57;;;17.00;93.30;;;;;;5046178;28;20234;-90
2023/06/17 00:34:22;;;;;;;6.97;6.30;;;17.50;93.50;;;;;;5043329;28;20354;-90
2023/06/17 00:36:48;;;;;;;7.33;6.73;;;17.40;93.50;;;;;;5066699;28;20516;-90
2023/06/17 00:39:15;;;;;;;7.43;6.63;;;16.90;93.40;;;;;;5048431;28;20703;-90
2023/06/17 00:41:40;;;;;;;7.32;6.72;;;16.60;93.20;;;;;;5049305;28;20204;-89
2023/06/17 00:44:06;;;;;;;6.77;6.17;;;17.10;93.40;;;;;;5046462;28;20592;-90
2023/06/17 00:46:38;;;;;;;6.70;6.13;;;17.20;93.60;;;;;;5049178;28;20216;-90
2023/06/17 00:49:06;;;;;;;7.85;6.95;;;17.00;93.50;;;;;;5050190;28;20191;-90
2023/06/17 00:51:33;;;;;;;6.50;6.00;;;16.90;93.70;;;;;;5055629;28;20193;-90
2023/06/17 00:54:00;;;;;;;7.47;6.78;;;17.00;94.00;;;;;;5045279;28;20209;-90
2023/06/17 00:56:27;;;;;;;6.90;6.30;;;17.00;94.00;;;;;;5048412;28;20181;-90
2023/06/17 00:58:54;;;;;;;8.40;6.72;;;17.00;94.00;;;;;;5063454;28;20181;-90
2023/06/17 01:01:19;;;;;;;7.50;6.80;;;17.00;94.20;;;;;;5049681;28;20212;-90
2023/06/17 01:03:46;;;;;;;6.93;6.33;;;16.80;94.10;;;;;;5050226;28;20535;-90
2023/06/17 01:06:17;;;;;;;7.07;6.28;;;16.90;94.30;;;;;;5051892;28;20185;-90
2023/06/17 01:08:57;;;;;;;7.43;6.72;;;16.90;94.20;;;;;;5044945;28;20248;-90
2023/06/17 01:11:23;;;;;;;7.30;6.70;;;16.70;94.30;;;;;;5050096;28;20184;-91
2023/06/17 01:13:51;;;;;;;7.82;6.93;;;16.30;94.40;;;;;;5046315;28;20931;-90
2023/06/17 01:16:17;;;;;;;6.72;6.13;;;17.00;94.90;;;;;;5046518;28;20433;-90
2023/06/17 01:18:48;;;;;;;7.57;6.88;;;16.60;95.00;;;;;;5049674;28;20697;-91
2023/06/17 01:21:15;;;;;;;8.98;7.07;;;16.60;95.30;;;;;;5064857;28;20188;-91
2023/06/17 01:23:42;;;;;;;7.45;6.72;;;16.70;95.20;;;;;;5051668;28;20726;-91
2023/06/17 01:26:07;;;;;;;6.55;6.03;;;16.60;95.20;;;;;;5048365;28;20724;-91
2023/06/17 01:28:34;;;;;;;6.50;6.00;;;16.80;95.00;;;;;;5053351;28;20271;-91
2023/06/17 01:31:00;;;;;;;7.80;7.00;;;16.60;95.20;;;;;;5046553;28;20203;-91
2023/06/17 01:33:26;;;;;;;7.70;6.40;;;17.00;95.40;;;;;;5047930;28;20212;-90
2023/06/17 01:36:10;;;;;;;9.03;6.90;;;16.50;95.40;;;;;;5045776;28;20181;-90
2023/06/17 01:39:01;;;;;;;7.60;6.90;;;16.40;95.30;;;;;;5047150;28;20211;-90
2023/06/17 01:41:35;;;;;;;7.28;6.65;;;16.40;95.40;;;;;;5048883;28;20217;-90
2023/06/17 01:44:04;;;;;;;7.93;7.32;;;16.10;95.60;;;;;;5047257;28;20245;-91
2023/06/17 01:46:30;;;;;;;7.57;6.60;;;16.40;95.90;;;;;;5049334;28;20189;-91
2023/06/17 01:48:56;;;;;;;7.10;6.10;;;17.60;96.50;;;;;;5047964;28;20212;-90
2023/06/17 01:51:22;;;;;;;7.32;6.55;;;16.20;95.60;;;;;;5047859;28;20201;-91
2023/06/17 01:53:48;;;;;;;7.07;6.47;;;15.80;95.80;;;;;;5045712;28;20231;-91
2023/06/17 01:56:14;;;;;;;7.45;6.85;;;16.30;96.20;;;;;;5049587;28;20172;-90
2023/06/17 01:58:39;;;;;;;8.00;7.30;;;16.30;96.20;;;;;;5048603;28;20654;-90
2023/06/17 02:01:05;;;;;;;7.63;6.93;;;16.30;96.30;;;;;;5049675;28;21044;-90
2023/06/17 02:03:34;;;;;;;7.07;6.57;;;16.20;96.40;;;;;;5050358;28;20201;-90
2023/06/17 02:05:59;;;;;;;7.90;7.05;;;17.90;97.30;;;;;;5049974;28;20191;-90
2023/06/17 02:08:26;;;;;;;7.90;7.20;;;16.10;96.40;;;;;;5049890;28;20194;-90
2023/06/17 02:10:52;;;;;;;8.00;6.70;;;15.80;96.30;;;;;;5049112;28;20227;-90
2023/06/17 02:13:17;;;;;;;7.37;6.67;;;15.50;96.70;;;;;;5050406;28;20221;-90
2023/06/17 02:15:43;;;;;;;8.27;6.33;;;16.10;96.70;;;;;;5049388;28;20673;-90
2023/06/17 02:18:09;;;;;;;7.10;6.50;;;16.00;97.00;;;;;;5048922;28;20672;-90
2023/06/17 02:20:35;;;;;;;7.88;7.18;;;16.20;97.40;;;;;;5045768;28;20608;-92
2023/06/17 02:23:00;;;;;;;7.33;6.73;;;15.70;97.00;;;;;;5050338;28;20213;-91
2023/06/17 02:25:26;;;;;;;8.47;7.20;;;16.20;97.40;;;;;;5049451;28;20291;-91
2023/06/17 02:27:52;;;;;;;7.70;6.90;;;15.90;97.40;;;;;;5046800;28;20692;-92
2023/06/17 02:30:17;;;;;;;7.63;6.90;;;15.80;97.00;;;;;;5046229;28;20578;-92
2023/06/17 02:32:43;;;;;;;7.43;6.63;;;15.80;97.30;;;;;;5048798;28;20216;-91
2023/06/17 02:35:10;;;;;;;7.43;6.80;;;15.70;97.30;;;;;;5048763;28;20646;-91
2023/06/17 02:37:37;;;;;;;7.25;6.55;;;15.70;97.50;;;;;;5054514;28;20189;-91
2023/06/17 02:40:08;;;;;;;6.63;6.03;;;15.50;97.30;;;;;;5052732;28;20205;-90
2023/06/17 02:42:35;;;;;;;6.82;6.03;;;15.80;97.60;;;;;;5053680;28;20197;-91
2023/06/17 02:45:01;;;;;;;6.88;6.28;;;15.90;97.50;;;;;;5051359;28;20682;-91
2023/06/17 02:47:27;;;;;;;6.77;6.17;;;15.70;97.40;;;;;;5052052;28;20177;-91
2023/06/17 02:49:52;;;;;;;6.83;6.23;;;15.40;97.40;;;;;;5053452;28;21015;-91
2023/06/17 02:52:18;;;;;;;7.60;6.90;;;15.70;97.60;;;;;;5053997;28;20653;-91
2023/06/17 02:54:43;;;;;;;7.80;7.00;;;15.90;97.90;;;;;;5056724;28;20279;-91
2023/06/17 02:57:09;;;;;;;7.30;6.60;;;15.50;97.60;;;;;;5057237;28;20169;-91
2023/06/17 02:59:35;;;;;;;6.90;6.30;;;15.40;97.70;;;;;;5050984;28;20185;-91
2023/06/17 03:02:01;;;;;;;7.28;6.55;;;15.80;97.90;;;;;;5054810;28;20217;-90
2023/06/17 03:04:34;;;;;;;7.17;6.57;;;15.80;97.90;;;;;;5051422;28;20181;-90
2023/06/17 03:07:03;;;;;;;7.32;6.63;;;15.40;97.80;;;;;;5057438;28;20226;-91
2023/06/17 03:09:28;;;;;;;6.68;6.07;;;15.50;97.90;;;;;;5053880;28;20580;-90
2023/06/17 03:11:54;;;;;;;7.60;6.93;;;15.60;98.00;;;;;;5051745;28;20219;-91
2023/06/17 03:14:20;;;;;;;7.40;6.63;;;15.60;98.00;;;;;;5052303;28;20204;-90
2023/06/17 03:16:46;;;;;;;7.70;7.00;;;15.60;98.20;;;;;;5054562;28;20188;-91
2023/06/17 03:19:13;;;;;;;7.17;6.47;;;15.50;98.40;;;;;;5051924;28;20176;-90
2023/06/17 03:21:40;;;;;;;7.55;6.93;;;15.60;98.60;;;;;;5056794;28;20197;-91
2023/06/17 03:24:07;;;;;;;7.25;6.65;;;15.60;98.40;;;;;;5053218;28;20184;-90
2023/06/17 03:26:32;;;;;;;9.52;7.07;;;15.60;98.40;;;;;;5054230;28;20186;-91
2023/06/17 03:28:58;;;;;;;7.17;6.57;;;15.80;98.50;;;;;;5055163;28;20181;-90
2023/06/17 03:31:24;;;;;;;8.60;7.80;;;15.00;98.00;;;;;;5051286;28;20212;-91
2023/06/17 03:33:53;;;;;;;7.97;6.47;;;15.50;98.70;;;;;;5053854;28;20241;-91
2023/06/17 03:36:24;;;;;;;6.90;6.40;;;15.70;98.80;;;;;;5056900;28;20451;-91
2023/06/17 03:38:53;;;;;;;7.22;6.63;;;15.30;98.60;;;;;;5058904;28;20608;-92
2023/06/17 03:41:18;;;;;;;7.28;6.60;;;15.30;98.60;;;;;;5047520;28;20169;-91
2023/06/17 03:43:44;;;;;;;7.83;7.13;;;15.20;98.50;;;;;;5052871;28;20193;-91
2023/06/17 03:46:10;;;;;;;7.23;6.50;;;15.60;98.90;;;;;;5048926;28;20223;-90
2023/06/17 03:48:35;;;;;;;7.17;6.57;;;15.50;98.80;;;;;;5044038;28;20342;-90
2023/06/17 03:51:02;;;;;;;10.60;6.83;;;15.60;98.90;;;;;;5047483;28;20193;-91
2023/06/17 03:53:27;;;;;;;7.85;7.05;;;15.30;98.70;;;;;;5054559;28;20631;-91
2023/06/17 03:55:53;;;;;;;7.27;6.57;;;15.60;98.90;;;;;;5053232;28;20189;-90
2023/06/17 03:58:19;;;;;;;6.90;6.20;;;15.40;98.80;;;;;;5051335;28;20443;-90
2023/06/17 04:00:44;;;;;;;6.90;6.30;;;15.60;98.70;;;;;;5052001;28;20489;-90
2023/06/17 04:03:11;;;;;;;7.83;7.03;;;15.50;98.60;;;;;;5055972;28;20220;-90
2023/06/17 04:05:40;;;;;;;6.40;5.57;;;15.60;98.60;;;;;;5051552;28;20197;-90
2023/06/17 04:08:06;;;;;;;7.30;6.70;;;14.90;98.30;;;;;;5055564;28;20185;-90
2023/06/17 04:10:32;;;;;;;7.63;6.93;;;15.40;98.70;;;;;;5047735;28;20185;-90
2023/06/17 04:12:57;;;;;;;7.27;6.40;;;15.20;98.50;;;;;;5051149;28;20219;-91
2023/06/17 04:15:23;;;;;;;8.53;7.70;;;15.40;98.60;;;;;;5050477;28;20852;-90
2023/06/17 04:17:48;;;;;;;6.80;6.10;;;15.40;98.70;;;;;;5052134;28;20713;-91
2023/06/17 04:20:14;;;;;;;7.00;6.40;;;15.70;99.00;;;;;;5047432;28;20654;-90
2023/06/17 04:22:41;;;;;;;9.20;6.53;;;15.80;99.00;;;;;;5045891;28;20689;-92
2023/06/17 04:25:09;;;;;;;8.20;7.50;;;15.60;98.70;;;;;;5072340;28;20215;-91
2023/06/17 04:27:36;;;;;;;7.15;6.57;;;14.90;98.30;;;;;;5061712;28;20181;-91
2023/06/17 04:30:03;;;;;;;7.93;6.88;;;15.50;98.40;;;;;;5062608;28;20181;-91
2023/06/17 04:32:29;;;;;;;8.05;7.30;;;15.50;98.60;;;;;;5075553;28;20243;-90
2023/06/17 04:34:55;;;;;;;7.43;6.83;;;15.70;98.50;;;;;;5047887;28;20235;-91
2023/06/17 04:37:22;;;;;;;7.90;7.20;;;15.60;98.30;;;;;;5048476;28;20189;-91
2023/06/17 04:39:48;;;;;;;7.32;6.72;;;15.80;98.40;;;;;;5047451;28;20435;-91
2023/06/17 04:42:14;;;;;;;8.20;6.72;;;16.00;98.30;;;;;;5065062;28;20698;-91
2023/06/17 04:44:40;;;;;;;8.00;7.20;;;15.70;98.10;;;;;;5050557;28;20188;-91
2023/06/17 04:47:07;;;;;;;7.40;6.70;;;16.10;98.10;;;;;;5050454;28;20218;-91
2023/06/17 04:49:41;;;;;;;7.32;6.63;;;16.10;97.90;;;;;;5045356;28;20629;-91
2023/06/17 04:52:19;;;;;;;7.95;7.20;;;16.00;97.70;;;;;;5061382;28;20219;-91
2023/06/17 04:54:45;;;;;;;8.77;8.07;;;16.40;97.60;;;;;;5048380;28;20209;-91
2023/06/17 04:57:13;;;;;;;7.60;6.90;;;16.10;97.20;;;;;;5043955;28;20292;-90
2023/06/17 04:59:39;;;;;;;7.05;6.40;;;16.50;97.30;;;;;;5048822;28;20181;-92
2023/06/17 05:02:04;;;;;;;8.13;7.33;;;16.30;97.00;;;;;;5049017;28;20656;-92
2023/06/17 05:04:30;;;;;;;8.00;7.37;;;16.10;96.60;;;;;;5048942;28;20185;-91
2023/06/17 05:06:59;;;;;;;8.20;7.50;;;17.10;97.00;;;;;;5043172;28;20216;-91
2023/06/17 05:09:25;;;;;;;7.78;7.07;;;16.60;96.40;;;;;;5050196;28;20181;-91
2023/06/17 05:11:51;;;;;;;8.57;7.95;;;16.90;96.30;;;;;;5047406;28;20216;-91
2023/06/17 05:14:16;;;;;;;8.00;7.30;;;16.70;96.30;;;;;;5048370;28;20208;-90
2023/06/17 05:16:42;;;;;;;8.20;7.50;;;17.20;95.90;;;;;;5044106;28;20196;-90
2023/06/17 05:19:07;;;;;;;8.50;7.70;;;17.20;95.80;;;;;;5045410;28;20169;-91
2023/06/17 05:21:33;;;;;;;9.67;7.73;;;17.20;94.80;;;;;;5048760;28;20187;-91
2023/06/17 05:23:58;;;;;;;8.73;7.90;;;17.00;95.00;;;;;;5048414;28;20204;-91
2023/06/17 05:26:24;;;;;;;8.87;8.00;;;17.40;95.00;;;;;;5045635;28;20199;-91
2023/06/17 05:28:49;;;;;;;9.83;8.90;;;18.00;95.00;;;;;;5048277;28;20225;-91
2023/06/17 05:31:15;;;;;;;8.03;7.33;;;18.10;94.80;;;;;;5047198;28;20192;-91
2023/06/17 05:33:40;;;;;;;12.30;8.10;;;18.20;94.60;;;;;;5048047;28;20554;-90
2023/06/17 05:36:06;;;;;;;10.10;7.80;;;18.10;93.90;;;;;;5047263;28;20185;-90
2023/06/17 05:38:32;;;;;;;7.90;7.20;;;17.80;93.80;;;;;;5047806;28;20177;-91
2023/06/17 05:40:57;;;;;;;10.40;8.57;;;18.10;93.80;;;;;;5045640;28;20241;-91
2023/06/17 05:43:27;;;;;;;9.60;7.93;;;18.40;94.80;;;;;;5049579;28;20204;-91
2023/06/17 05:45:53;;;;;;;8.50;7.70;;;17.90;93.50;;;;;;5050894;28;20184;-92
2023/06/17 05:48:18;;;;;;;8.50;7.80;;;18.50;94.20;;;;;;5049103;28;20637;-91
2023/06/17 05:50:47;;;;;;;11.37;8.77;;;19.50;94.00;;;;;;5050216;28;20660;-91
2023/06/17 05:53:12;;;;;;;9.13;7.80;;;19.90;93.40;;;;;;5050460;28;20269;-91
2023/06/17 05:55:38;;;;;;;8.90;8.00;;;20.60;94.30;;;;;;5048596;28;20180;-91
2023/06/17 05:58:03;;;;;;;8.73;8.00;;;19.40;93.40;;;;;;5046557;28;20177;-91
2023/06/17 06:00:29;;;;;;;8.33;7.53;;;19.30;93.40;;;;;;5049223;28;20188;-91
2023/06/17 06:02:56;;;;;;;8.80;8.10;;;19.00;92.50;;;;;;5044823;28;20208;-91
2023/06/17 06:05:21;;;;;;;12.43;7.63;;;18.70;91.20;;;;;;5061720;28;20813;-91
2023/06/17 06:07:47;;;;;;;7.83;7.23;;;20.40;92.30;;;;;;5046508;28;20271;-91
2023/06/17 06:10:13;;;;;;;8.63;7.90;;;;;;;;;;5046351;28;20192;-91
2023/06/17 06:12:39;;;;;;;8.70;8.00;;;19.70;90.10;;;;;;5051541;28;20296;-91
2023/06/17 06:15:06;;;;;;;11.70;7.70;;;19.50;91.00;;;;;;5050921;28;21392;-93
2023/06/17 06:17:31;;;;;;;7.65;6.95;;;20.10;89.80;;;;;;5052622;28;20638;-93
2023/06/17 06:19:57;;;;;;;9.60;8.70;;;21.50;90.40;;;;;;5049343;28;20219;-91
2023/06/17 06:22:23;;;;;;;8.27;7.53;;;20.80;89.80;;;;;;5051676;28;20594;-91
2023/06/17 06:24:48;;;;;;;8.33;7.63;;;20.70;89.00;;;;;;5054153;28;20645;-91
2023/06/17 06:27:14;;;;;;;8.83;8.03;;;21.10;87.90;;;;;;5058597;28;20185;-91
2023/06/17 06:29:40;;;;;;;12.30;8.70;;;19.30;83.60;;;;;;5071606;28;20176;-91
2023/06/17 06:32:06;;;;;;;12.40;7.27;;;23.00;88.20;;;;;;5060974;28;20334;-91
2023/06/17 06:34:32;;;;;;;8.47;7.77;;;21.10;84.50;;;;;;5065835;28;20227;-92
2023/06/17 06:36:58;;;;;;;8.47;7.67;;;23.50;86.80;;;;;;5053143;28;20526;-92
2023/06/17 06:39:25;;;;;;;8.87;8.07;;;21.40;84.60;;;;;;5054189;28;20824;-92
2023/06/17 06:41:51;;;;;;;7.70;7.10;;;21.00;83.30;;;;;;5051796;28;21003;-92
2023/06/17 06:44:16;;;;;;;11.03;9.00;;;21.60;83.50;;;;;;5050980;28;20443;-92
2023/06/17 06:46:42;;;;;;;10.40;9.13;;;23.50;85.90;;;;;;5051781;28;20470;-92
2023/06/17 06:49:08;;;;;;;8.10;7.50;;;23.20;84.80;;;;;;5051289;28;20177;-92
2023/06/17 06:51:36;;;;;;;9.63;8.83;;;22.50;82.40;;;;;;5053773;28;20435;-91
2023/06/17 06:54:05;;;;;;;8.80;7.90;;;22.20;80.40;;;;;;5052861;28;20216;-92
2023/06/17 06:56:31;;;;;;;9.97;8.20;;;22.40;77.90;;;;;;5049935;28;20450;-91
2023/06/17 06:58:56;;;;;;;9.90;8.33;;;24.20;80.80;;;;;;5050278;28;20477;-91
2023/06/17 07:03:58;;;;;;;9.20;7.70;;;22.70;74.50;;;;;;5052895;22;20647;-72
2023/06/17 07:06:23;;;;;;;8.80;8.03;;;24.10;73.20;;;;;;5047880;28;20493;-69
2023/06/17 07:08:49;;;;;;;8.23;7.40;;;26.70;64.80;;;;;;5046631;28;20445;-68
2023/06/17 07:11:15;;;;;;;8.20;7.20;;;29.90;57.40;;;;;;5038222;28;20198;-69
2023/06/17 07:13:41;;;;;;;7.17;6.50;;;31.80;49.70;;;;;;5022138;28;20669;-69
2023/06/17 07:16:06;;;;;;;7.70;7.10;;;33.60;46.40;;;;;;5027098;28;20187;-69
2023/06/17 07:18:32;;;;;;;10.40;7.77;;;35.90;42.40;;;;;;5027604;28;20460;-72
2023/06/17 07:20:58;;;;;;;8.30;7.70;;;37.60;37.40;;;;;;5022625;28;20210;-71
2023/06/17 07:23:23;;;;;;;7.40;6.80;;;37.60;34.10;;;;;;5027016;28;20194;-71
2023/06/17 07:25:49;;;;;;;7.83;7.13;;;38.90;34.30;;;;;;5023537;28;20739;-72
2023/06/17 07:28:16;;;;;;;8.47;7.60;;;40.30;32.30;;;;;;5028099;28;20182;-71
2023/06/17 07:30:41;;;;;;;7.70;7.20;;;41.30;29.90;;;;;;5024148;28;20938;-74
2023/06/17 07:33:10;;;;;;;8.50;7.90;;;41.50;29.50;;;;;;5026331;28;20500;-75
2023/06/17 07:35:35;;;;;;;8.07;7.43;;;41.90;28.60;;;;;;5028336;28;20624;-76
2023/06/17 07:38:01;;;;;;;8.70;7.90;;;40.30;29.10;;;;;;5011704;28;20559;-75
2023/06/17 07:40:27;;;;;;;8.70;8.10;;;40.30;29.40;;;;;;5020412;28;20179;-76
2023/06/17 07:42:52;;;;;;;8.17;7.67;;;40.90;28.80;;;;;;5023727;28;20182;-72
2023/06/17 07:45:18;;;;;;;8.13;7.40;;;40.80;28.70;;;;;;5024517;28;20196;-72
2023/06/17 07:47:43;;;;;;;8.20;7.50;;;39.80;29.20;;;;;;5030157;28;20190;-72
2023/06/17 07:50:10;;;;;;;8.80;8.13;;;38.50;30.40;;;;;;5010562;28;20182;-74
2023/06/17 07:52:36;;;;;;;8.23;7.53;;;39.00;30.70;;;;;;5019833;28;20206;-72
2023/06/17 07:55:02;;;;;;;8.37;7.23;;;39.70;30.00;;;;;;5022370;28;20480;-70
2023/06/17 07:57:28;;;;;;;7.90;7.27;;;40.70;29.00;;;;;;5013283;28;20873;-75
2023/06/17 07:59:54;;;;;;;7.80;7.30;;;41.70;28.50;;;;;;5010991;28;20520;-77
2023/06/17 08:02:21;;;;;;;8.57;7.70;;;40.80;28.80;;;;;;5010164;28;20468;-70
2023/06/17 08:04:48;;;;;;;8.10;7.50;;;41.40;28.00;;;;;;5026286;28;20269;-70
2023/06/17 08:07:14;;;;;;;7.40;6.70;;;41.00;28.60;;;;;;5027825;28;20475;-76
2023/06/17 08:09:40;;;;;;;8.60;7.87;;;42.10;27.90;;;;;;5009692;28;20530;-75
2023/06/17 08:12:06;;;;;;;7.80;7.20;;;41.90;27.20;;;;;;5011948;28;21209;-78
2023/06/17 08:14:31;;;;;;;7.07;6.43;;;41.70;27.40;;;;;;5009218;28;20352;-76
2023/06/17 08:16:57;;;;;;;8.10;7.50;;;42.00;27.30;;;;;;5023973;28;20441;-73
2023/06/17 08:19:23;;;;;;;7.70;7.10;;;41.90;26.70;;;;;;5027028;28;20186;-76
2023/06/17 08:21:49;;;;;;;8.23;7.43;;;40.00;28.00;;;;;;5025477;28;20841;-71
2023/06/17 08:24:25;;;;;;;7.70;6.97;;;40.10;28.00;;;;;;5026679;28;20192;-69
2023/06/17 08:26:52;;;;;;;8.73;8.03;;;40.70;27.80;;;;;;5026824;28;20527;-68
2023/06/17 08:29:19;;;;;;;7.60;7.00;;;40.30;27.30;;;;;;5025065;28;20480;-73
2023/06/17 08:31:46;;;;;;;7.80;7.07;;;39.20;29.00;;;;;;5028190;28;20468;-71
2023/06/17 08:34:13;;;;;;;9.00;7.03;;;41.10;27.40;;;;;;5028871;28;21003;-71
2023/06/17 08:36:41;;;;;;;7.60;7.00;;;40.70;27.10;;;;;;5027523;28;20489;-70
2023/06/17 08:39:08;;;;;;;8.10;7.40;;;41.10;26.70;;;;;;5030286;28;20468;-71
2023/06/17 08:41:40;;;;;;;7.73;7.13;;;41.60;26.80;;;;;;5029456;28;20515;-71
2023/06/17 08:44:07;;;;;;;6.83;6.33;;;42.30;25.80;;;;;;5025728;28;23311;-71
2023/06/17 08:46:34;;;;;;;8.13;7.00;;;41.70;25.90;;;;;;5023402;28;20433;-73
2023/06/17 08:49:02;;;;;;;8.07;7.27;;;42.20;26.30;;;;;;5021513;28;20879;-71
2023/06/17 08:51:28;;;;;;;7.87;7.27;;;40.80;26.20;;;;;;5024847;28;21000;-70
2023/06/17 08:53:55;;;;;;;7.43;6.93;;;41.40;26.50;;;;;;5026673;28;20464;-72
2023/06/17 08:56:20;;;;;;;8.37;7.67;;;42.50;25.60;;;;;;5003091;28;20671;-71
2023/06/17 08:58:47;;;;;;;8.10;7.60;;;41.50;25.80;;;;;;5025654;28;20539;-72
2023/06/17 09:01:13;;;;;;;7.53;7.03;;;41.60;25.90;;;;;;5026017;28;20743;-71
2023/06/17 09:03:41;;;;;;;7.97;7.47;;;42.20;25.80;;;;;;5026302;28;20543;-71
2023/06/17 09:06:20;;;;;;;8.20;7.60;;;41.00;26.10;;;;;;5007137;28;20458;-72
2023/06/17 09:08:50;;;;;;;8.00;7.30;;;40.90;26.20;;;;;;5024731;28;20919;-72
2023/06/17 09:11:17;;;;;;;7.67;6.67;;;39.70;26.20;;;;;;5022751;28;20472;-72
2023/06/17 09:13:50;;;;;;;7.47;6.93;;;36.60;27.30;;;;;;5021964;28;20464;-70
2023/06/17 09:16:24;;;;;;;6.57;6.10;;;35.00;29.80;;;;;;5026296;28;20440;-71
2023/06/17 09:18:54;;;;;;;7.27;6.60;;;34.20;30.00;;;;;;5025794;28;20439;-69
2023/06/17 09:21:20;;;;;;;7.60;6.90;;;34.10;31.00;;;;;;5021697;28;20461;-71
2023/06/17 09:23:55;;;;;;;7.27;6.77;;;33.30;30.90;;;;;;5025412;28;21670;-72
2023/06/17 09:26:24;;;;;;;6.87;6.27;;;33.50;31.60;;;;;;5026038;28;20436;-71
2023/06/17 09:28:49;;;;;;;7.60;6.43;;;35.10;30.00;;;;;;5025852;28;20473;-71
2023/06/17 09:31:18;;;;;;;7.10;6.50;;;36.80;28.00;;;;;;5019597;28;20507;-71
2023/06/17 09:33:44;;;;;;;6.23;5.73;;;38.40;27.10;;;;;;5023398;28;20461;-70
2023/06/17 09:36:11;;;;;;;5.90;5.50;;;39.40;26.30;;;;;;5019138;28;20484;-71
2023/06/17 09:38:38;;;;;;;6.10;5.60;;;40.10;25.40;;;;;;5026538;28;21049;-71
2023/06/17 09:41:04;;;;;;;5.50;5.20;;;40.60;24.90;;;;;;5026436;28;20496;-70
2023/06/17 09:43:30;;;;;;;6.73;6.23;;;40.30;24.80;;;;;;5009256;28;20470;-71
2023/06/17 09:46:06;;;;;;;7.77;7.00;;;39.90;25.60;;;;;;5019301;28;20448;-70
2023/06/17 09:48:38;;;;;;;6.07;5.57;;;37.20;26.70;;;;;;5025720;28;20527;-70
2023/06/17 09:51:09;;;;;;;7.40;6.03;;;35.30;27.40;;;;;;5022048;28;20743;-70
2023/06/17 09:53:36;;;;;;;6.20;5.70;;;34.10;28.00;;;;;;5024063;28;20461;-72
2023/06/17 09:56:02;;;;;;;6.70;5.40;;;33.00;29.90;;;;;;5025645;28;20961;-70
2023/06/17 09:58:30;;;;;;;5.87;5.37;;;32.00;29.80;;;;;;5023583;28;20847;-69
2023/06/17 10:01:07;;;;;;;5.00;4.60;;;32.20;30.30;;;;;;5025016;28;20518;-71
2023/06/17 10:03:34;;;;;;;5.83;5.33;;;33.80;28.80;;;;;;5024851;28;20472;-69
2023/06/17 10:06:13;;;;;;;5.50;5.00;;;34.70;27.70;;;;;;5023361;28;20455;-69
2023/06/17 10:08:48;;;;;;;6.07;5.67;;;36.70;26.90;;;;;;5024898;28;20957;-71
2023/06/17 10:11:17;;;;;;;5.73;5.33;;;37.70;26.20;;;;;;5025616;28;20535;-69
2023/06/17 10:13:46;;;;;;;6.30;5.90;;;38.10;25.40;;;;;;5021005;28;20464;-72
2023/06/17 10:16:15;;;;;;;5.90;5.40;;;39.10;25.20;;;;;;5022421;28;20538;-70
2023/06/17 10:18:44;;;;;;;6.73;4.70;;;40.40;24.10;;;;;;5025470;28;20977;-71
2023/06/17 10:21:12;;;;;;;6.10;5.67;;;39.70;24.60;;;;;;5021980;28;20456;-70
2023/06/17 10:23:39;;;;;;;6.00;5.60;;;40.00;24.30;;;;;;5025222;28;20455;-71
2023/06/17 10:26:06;;;;;;;5.97;5.57;;;40.10;24.30;;;;;;5023967;28;20945;-70
2023/06/17 10:28:53;;;;;;;6.70;6.00;;;38.60;24.50;;;;;;5025334;28;20443;-71
2023/06/17 10:31:30;;;;;;;6.70;5.80;;;36.60;25.70;;;;;;5024439;28;20920;-70
2023/06/17 10:33:57;;;;;;;5.57;5.17;;;35.10;27.50;;;;;;5023383;28;20957;-72
2023/06/17 10:36:27;;;;;;;5.50;5.10;;;34.10;28.70;;;;;;5023882;28;20447;-70
2023/06/17 10:38:56;;;;;;;6.87;6.27;;;33.40;29.10;;;;;;5024906;28;20897;-70
2023/06/17 10:41:42;;;;;;;7.00;6.00;;;34.40;28.60;;;;;;5024035;28;20906;-70
2023/06/17 10:44:23;;;;;;;6.50;5.90;;;34.70;28.00;;;;;;5022071;28;20801;-70
2023/06/17 10:46:53;;;;;;;6.37;5.77;;;33.60;28.70;;;;;;5024492;28;20437;-72
2023/06/17 10:49:19;;;;;;;6.03;5.60;;;35.20;28.60;;;;;;5005719;28;20448;-68
2023/06/17 10:51:49;;;;;;;6.20;5.60;;;36.40;26.90;;;;;;5025523;28;20468;-71
2023/06/17 10:54:14;;;;;;;6.50;6.00;;;36.60;26.40;;;;;;5024559;28;20472;-70
2023/06/17 10:56:50;;;;;;;5.73;5.33;;;36.30;26.30;;;;;;5025325;28;20492;-70
2023/06/17 10:59:26;;;;;;;6.07;5.57;;;36.60;26.20;;;;;;5024883;28;20229;-71
2023/06/17 11:02:03;;;;;;;6.10;5.60;;;37.10;25.70;;;;;;5028684;28;20479;-69
2023/06/17 11:04:32;;;;;;;7.57;6.87;;;37.60;25.40;;;;;;5023377;28;20546;-71
2023/06/17 11:06:59;;;;;;;6.20;5.70;;;37.90;25.00;;;;;;5028350;28;20647;-70
2023/06/17 11:09:28;;;;;;;6.17;5.33;;;38.20;24.80;;;;;;5028797;28;20438;-70
2023/06/17 11:11:55;;;;;;;6.57;5.97;;;38.30;24.50;;;;;;5028523;28;21032;-69
2023/06/17 11:14:21;;;;;;;6.17;5.50;;;38.80;24.20;;;;;;5025921;28;20538;-70
2023/06/17 11:16:49;;;;;;;6.20;5.70;;;38.10;24.50;;;;;;5028993;28;20444;-70
2023/06/17 11:19:15;;;;;;;5.93;5.43;;;37.50;25.20;;;;;;5012479;28;20959;-70
2023/06/17 11:21:41;;;;;;;6.67;5.87;;;37.10;25.30;;;;;;5029203;28;20456;-70
2023/06/17 11:24:09;;;;;;;8.30;5.30;;;37.80;24.50;;;;;;5009771;28;20922;-70
2023/06/17 11:26:35;;;;;;;5.40;5.10;;;38.10;24.90;;;;;;5028720;28;20487;-69
2023/06/17 11:29:01;;;;;;;6.60;6.00;;;38.20;24.10;;;;;;5026165;28;20449;-69
2023/06/17 11:31:28;;;;;;;5.90;5.40;;;37.50;24.90;;;;;;5028738;28;20212;-70
2023/06/17 11:33:58;;;;;;;5.77;5.27;;;37.10;25.10;;;;;;5010152;28;20212;-69
2023/06/17 11:36:26;;;;;;;5.40;5.00;;;36.70;25.10;;;;;;5026914;28;20437;-68
2023/06/17 11:38:55;;;;;;;5.90;5.50;;;35.20;26.20;;;;;;5028604;28;20433;-70
2023/06/17 11:41:22;;;;;;;5.60;4.90;;;33.60;27.20;;;;;;5028750;28;20530;-69
2023/06/17 11:43:50;;;;;;;8.70;6.47;;;32.80;28.00;;;;;;5027656;28;20763;-69
2023/06/17 11:46:23;;;;;;;5.57;5.17;;;33.00;28.20;;;;;;5011138;28;20516;-71
2023/06/17 11:48:48;;;;;;;5.67;5.27;;;33.50;28.20;;;;;;5027722;28;20551;-70
2023/06/17 11:51:18;;;;;;;6.90;5.80;;;33.60;28.00;;;;;;5024964;28;20563;-70
2023/06/17 11:53:46;;;;;;;6.10;5.57;;;33.30;27.70;;;;;;5027445;28;20220;-68
2023/06/17 11:56:13;;;;;;;6.23;5.73;;;32.30;28.40;;;;;;5024999;28;20448;-68
2023/06/17 11:58:40;;;;;;;5.67;5.27;;;31.70;29.00;;;;;;5025741;28;20461;-68
2023/06/17 12:01:08;;;;;;;5.83;5.30;;;31.20;29.50;;;;;;5027998;28;20460;-69
2023/06/17 12:03:34;;;;;;;5.17;4.77;;;30.60;29.80;;;;;;5028231;28;20948;-68
2023/06/17 12:06:00;;;;;;;5.90;5.40;;;30.40;29.90;;;;;;5026031;28;20532;-69
2023/06/17 12:08:36;;;;;;;5.87;5.30;;;30.40;30.20;;;;;;5011438;28;20527;-69
2023/06/17 12:11:22;;;;;;;5.50;5.10;;;30.20;31.10;;;;;;5030825;28;20267;-69
2023/06/17 12:13:50;;;;;;;8.33;5.60;;;30.10;30.70;;;;;;5025571;28;20472;-69
2023/06/17 12:16:30;;;;;;;5.27;4.77;;;29.70;31.10;;;;;;5027857;28;20444;-69
2023/06/17 12:18:56;;;;;;;6.57;5.47;;;29.70;31.50;;;;;;5027046;28;20822;-70
2023/06/17 12:21:23;;;;;;;5.90;5.50;;;29.70;31.20;;;;;;5019600;28;20464;-68
2023/06/17 12:23:50;;;;;;;7.30;5.50;;;29.50;31.80;;;;;;5022811;28;20267;-69
2023/06/17 12:26:20;;;;;;;5.10;4.73;;;29.50;31.60;;;;;;5029213;28;20449;-69
2023/06/17 12:28:45;;;;;;;5.90;5.40;;;29.30;32.00;;;;;;5029547;28;20888;-70
2023/06/17 12:31:14;;;;;;;5.53;5.13;;;29.00;31.90;;;;;;5024420;28;21161;-69
2023/06/17 12:33:40;;;;;;;6.13;5.63;;;29.10;32.60;;;;;;5048564;22;20310;-73
2023/06/17 12:36:06;;;;;;;5.40;4.87;;;29.30;32.60;;;;;;5045196;28;20667;-73
2023/06/17 12:38:33;;;;;;;6.07;5.57;;;29.40;32.30;;;;;;5048618;28;20180;-73
2023/06/17 12:40:59;;;;;;;5.60;5.10;;;29.50;32.00;;;;;;5043960;28;20556;-73
2023/06/17 12:43:29;;;;;;;5.43;5.03;;;29.40;31.70;;;;;;5028384;28;20516;-74
2023/06/17 12:45:59;;;;;;;6.37;5.77;;;29.30;31.90;;;;;;5030002;28;20450;-74
2023/06/17 12:48:28;;;;;;;6.80;5.67;;;29.30;31.90;;;;;;5029623;28;20484;-74
2023/06/17 12:50:55;;;;;;;5.70;5.20;;;29.40;31.80;;;;;;5042233;28;20468;-73